createdAt,value
2023-03-18T00:01:43.077Z,6.09
2023-03-18T00:04:10.018Z,5.50
2023-03-18T00:06:38.600Z,5.85
2023-03-18T00:09:06.718Z,5.73
2023-03-18T00:11:35.796Z,6.00
2023-03-18T00:14:02.904Z,6.04
2023-03-18T00:16:50.956Z,5.56
2023-03-18T00:21:44.943Z,5.94
2023-03-18T00:24:14.317Z,5.96
2023-03-18T00:26:42.536Z,5.23
2023-03-18T00:29:10.440Z,5.03
2023-03-18T00:31:40.865Z,5.07
2023-03-18T00:34:08.717Z,5.54
2023-03-18T00:36:36.716Z,5.61
2023-03-18T00:39:04.306Z,6.04
2023-03-18T00:41:37.200Z,5.98
2023-03-18T00:44:08.479Z,6.21
2023-03-18T00:46:42.559Z,6.35
2023-03-18T00:49:14.171Z,6.30
2023-03-18T00:51:42.466Z,5.90
2023-03-18T00:54:16.699Z,6.01
2023-03-18T00:56:45.623Z,6.26
2023-03-18T00:59:15.079Z,5.63
2023-03-18T01:01:44.431Z,5.43
2023-03-18T01:04:11.948Z,5.72
2023-03-18T01:06:39.639Z,6.06
2023-03-18T01:09:10.202Z,6.17
2023-03-18T01:11:37.139Z,6.11
2023-03-18T01:14:04.140Z,5.96
2023-03-18T01:16:31.467Z,5.97
2023-03-18T01:18:58.596Z,5.66
2023-03-18T01:21:25.709Z,5.85
2023-03-18T01:23:52.638Z,5.76
2023-03-18T01:26:20.603Z,5.82
2023-03-18T01:28:48.266Z,5.99
2023-03-18T01:31:15.785Z,5.99
2023-03-18T01:33:42.800Z,5.64
2023-03-18T01:36:10.791Z,5.43
2023-03-18T01:38:39.038Z,5.46
2023-03-18T01:41:05.944Z,5.03
2023-03-18T01:43:36.204Z,5.33
2023-03-18T01:46:45.101Z,4.89
2023-03-18T01:49:22.902Z,5.06
2023-03-18T01:52:05.641Z,5.08
2023-03-18T01:54:36.474Z,5.29
2023-03-18T01:57:03.899Z,4.83
2023-03-18T01:59:34.398Z,5.29
2023-03-18T02:02:27.762Z,5.22
2023-03-18T02:04:57.363Z,5.52
2023-03-18T02:07:30.136Z,5.46
2023-03-18T02:10:00.516Z,5.67
2023-03-18T02:12:34.041Z,5.06
2023-03-18T02:15:04.297Z,5.21
2023-03-18T02:17:36.637Z,5.04
2023-03-18T02:20:38.877Z,4.70
2023-03-18T02:23:27.561Z,5.31
2023-03-18T02:26:13.137Z,4.91
2023-03-18T02:28:47.443Z,4.54
2023-03-18T02:31:20.836Z,4.46
2023-03-18T02:33:49.795Z,4.91
2023-03-18T02:36:22.621Z,5.16
2023-03-18T02:38:49.927Z,5.07
2023-03-18T02:41:23.556Z,5.32
2023-03-18T02:43:51.577Z,5.02
2023-03-18T02:46:31.335Z,5.63
2023-03-18T02:49:01.879Z,5.63
2023-03-18T02:51:29.478Z,5.75
2023-03-18T02:54:02.096Z,5.88
2023-03-18T02:56:29.713Z,5.86
2023-03-18T02:58:58.058Z,5.22
2023-03-18T03:01:30.252Z,5.48
2023-03-18T03:03:57.387Z,5.12
2023-03-18T03:06:28.320Z,5.59
2023-03-18T03:09:03.161Z,5.59
2023-03-18T03:11:32.157Z,4.99
2023-03-18T03:13:59.305Z,5.14
2023-03-18T03:16:26.359Z,5.19
2023-03-18T03:18:53.402Z,5.51
2023-03-18T03:21:20.764Z,5.63
2023-03-18T03:23:52.520Z,5.60
2023-03-18T03:26:19.744Z,5.75
2023-03-18T03:28:47.506Z,5.64
2023-03-18T03:31:14.683Z,5.81
2023-03-18T03:33:48.242Z,5.76
2023-03-18T03:36:24.188Z,5.56
2023-03-18T03:38:53.744Z,5.43
2023-03-18T03:41:22.415Z,5.28
2023-03-18T03:43:49.901Z,4.24
2023-03-18T03:46:17.543Z,4.96
2023-03-18T03:48:45.751Z,5.28
2023-03-18T03:51:15.933Z,5.39
2023-03-18T03:53:45.863Z,5.27
2023-03-18T03:56:15.877Z,5.37
2023-03-18T03:58:43.025Z,5.05
2023-03-18T04:01:10.101Z,4.85
2023-03-18T04:03:39.702Z,5.31
2023-03-18T04:06:08.268Z,5.62
2023-03-18T04:08:35.276Z,5.57
2023-03-18T04:11:04.167Z,5.62
2023-03-18T04:13:31.405Z,5.52
2023-03-18T04:15:58.523Z,5.19
2023-03-18T04:18:32.180Z,5.05
2023-03-18T04:20:59.356Z,5.16
2023-03-18T04:23:29.587Z,5.51
2023-03-18T04:25:59.044Z,5.43
2023-03-18T04:28:29.760Z,5.47
2023-03-18T04:30:56.751Z,5.34
2023-03-18T04:33:27.003Z,5.49
2023-03-18T04:36:00.123Z,5.48
2023-03-18T04:38:28.829Z,5.38
2023-03-18T04:40:55.977Z,5.55
2023-03-18T04:43:23.120Z,5.56
2023-03-18T04:45:50.436Z,5.37
2023-03-18T04:48:17.516Z,5.35
2023-03-18T04:50:45.417Z,5.46
2023-03-18T04:53:14.175Z,5.56
2023-03-18T04:55:41.419Z,5.10
2023-03-18T04:58:08.618Z,4.88
2023-03-18T05:00:35.831Z,5.06
2023-03-18T05:03:05.556Z,4.71
2023-03-18T05:05:32.936Z,4.80
2023-03-18T05:08:00.457Z,4.61
2023-03-18T05:10:27.645Z,5.11
2023-03-18T05:12:54.704Z,5.32
2023-03-18T05:15:21.735Z,5.08
2023-03-18T05:17:48.775Z,5.69
2023-03-18T05:20:15.925Z,5.68
2023-03-18T05:22:43.140Z,5.97
2023-03-18T05:25:11.717Z,6.30
2023-03-18T05:27:38.771Z,6.69
2023-03-18T05:30:07.922Z,6.57
2023-03-18T05:32:34.962Z,7.07
2023-03-18T05:35:02.319Z,7.28
2023-03-18T05:37:29.557Z,7.68
2023-03-18T05:39:56.821Z,7.57
2023-03-18T05:42:24.163Z,7.65
2023-03-18T05:44:51.115Z,7.95
2023-03-18T05:47:18.268Z,7.89
2023-03-18T05:49:45.245Z,8.37
2023-03-18T05:52:12.456Z,8.91
2023-03-18T05:54:39.770Z,8.63
2023-03-18T05:57:07.686Z,8.60
2023-03-18T05:59:34.935Z,9.68
2023-03-18T06:02:02.270Z,10.48
2023-03-18T06:04:29.480Z,10.90
2023-03-18T06:06:57.158Z,11.09
2023-03-18T06:09:26.158Z,11.23
2023-03-18T06:11:54.427Z,11.29
2023-03-18T06:14:21.401Z,10.00
2023-03-18T06:16:48.397Z,10.93
2023-03-18T06:19:15.486Z,9.50
2023-03-18T06:21:42.765Z,9.72
2023-03-18T06:24:09.860Z,9.53
2023-03-18T06:26:36.939Z,9.89
2023-03-18T06:29:05.446Z,10.55
2023-03-18T06:31:32.578Z,9.49
2023-03-18T06:34:01.298Z,9.00
2023-03-18T06:36:28.378Z,8.88
2023-03-18T06:38:56.206Z,10.11
2023-03-18T06:41:23.401Z,9.76
2023-03-18T06:43:51.937Z,10.17
2023-03-18T06:46:19.021Z,10.33
2023-03-18T06:48:46.707Z,10.60
2023-03-18T06:51:13.727Z,9.67
2023-03-18T06:53:40.720Z,9.55
2023-03-18T06:56:08.177Z,9.12
2023-03-18T06:58:35.119Z,8.75
2023-03-18T07:01:03.163Z,9.14
2023-03-18T07:03:30.205Z,9.40
2023-03-18T07:05:57.519Z,9.29
2023-03-18T07:08:24.502Z,9.71
2023-03-18T07:10:57.423Z,9.91
2023-03-18T07:13:25.188Z,9.85
2023-03-18T07:15:52.437Z,9.55
2023-03-18T07:18:19.888Z,9.35
2023-03-18T07:20:46.819Z,9.25
2023-03-18T07:23:13.761Z,9.18
2023-03-18T07:25:42.201Z,9.03
2023-03-18T07:28:09.579Z,9.27
2023-03-18T07:30:36.558Z,8.96
2023-03-18T07:33:04.223Z,9.33
2023-03-18T07:35:31.600Z,9.07
2023-03-18T07:37:59.018Z,9.91
2023-03-18T07:40:26.176Z,9.29
2023-03-18T07:42:53.826Z,9.90
2023-03-18T07:45:20.955Z,9.99
2023-03-18T07:47:48.026Z,9.91
2023-03-18T07:50:15.305Z,9.50
2023-03-18T07:52:42.234Z,10.02
2023-03-18T07:55:09.521Z,9.70
2023-03-18T07:57:37.144Z,10.11
2023-03-18T08:00:06.400Z,10.15
2023-03-18T08:02:34.257Z,10.57
2023-03-18T08:05:01.500Z,10.97
2023-03-18T08:07:28.536Z,10.89
2023-03-18T08:09:55.726Z,11.31
2023-03-18T08:12:22.668Z,11.00
2023-03-18T08:14:49.959Z,11.40
2023-03-18T08:17:17.299Z,11.77
2023-03-18T08:19:44.691Z,11.33
2023-03-18T08:22:11.664Z,11.16
2023-03-18T08:24:38.899Z,11.28
2023-03-18T08:27:06.431Z,11.79
2023-03-18T08:29:33.855Z,12.01
2023-03-18T08:32:01.538Z,11.84
2023-03-18T08:34:28.485Z,11.85
2023-03-18T08:36:55.444Z,11.67
2023-03-18T08:39:22.922Z,11.79
2023-03-18T08:41:50.118Z,11.66
2023-03-18T08:44:18.261Z,11.93
2023-03-18T08:46:45.278Z,11.81
2023-03-18T08:49:14.330Z,11.50
2023-03-18T08:51:41.499Z,11.66
2023-03-18T08:54:08.661Z,11.72
2023-03-18T08:56:35.868Z,12.10
2023-03-18T08:59:02.862Z,11.87
2023-03-18T09:01:30.498Z,12.02
2023-03-18T09:03:59.363Z,11.68
2023-03-18T09:06:27.940Z,12.08
2023-03-18T09:08:54.881Z,12.07
2023-03-18T09:11:22.086Z,12.20
2023-03-18T09:13:48.959Z,12.18
2023-03-18T09:16:16.159Z,12.41
2023-03-18T09:18:45.204Z,12.90
2023-03-18T09:21:12.871Z,12.64
2023-03-18T09:23:39.923Z,12.77
2023-03-18T09:26:06.906Z,12.76
2023-03-18T09:28:33.796Z,12.71
2023-03-18T09:31:01.925Z,13.03
2023-03-18T09:33:28.944Z,13.00
2023-03-18T09:35:55.986Z,13.30
2023-03-18T09:38:22.896Z,13.07
2023-03-18T09:41:11.236Z,13.09
2023-03-18T09:43:47.173Z,13.40
2023-03-18T09:46:26.588Z,13.59
2023-03-18T09:49:05.115Z,13.92
2023-03-18T09:52:04.558Z,14.14
2023-03-18T09:54:41.961Z,13.69
2023-03-18T09:57:19.863Z,13.64
2023-03-18T09:59:54.977Z,13.95
2023-03-18T10:02:36.919Z,13.62
2023-03-18T10:05:16.935Z,13.46
2023-03-18T10:07:48.675Z,13.54
2023-03-18T10:10:26.557Z,13.69
2023-03-18T10:13:05.633Z,13.49
2023-03-18T10:15:39.664Z,14.12
2023-03-18T10:18:12.436Z,14.56
2023-03-18T10:21:20.774Z,14.49
2023-03-18T10:23:54.273Z,14.54
2023-03-18T10:26:27.802Z,14.76
2023-03-18T10:29:03.941Z,14.80
2023-03-18T10:31:50.385Z,14.72
2023-03-18T10:34:22.302Z,14.83
2023-03-18T10:37:34.639Z,14.76
2023-03-18T10:40:02.599Z,14.56
2023-03-18T10:42:32.215Z,15.64
2023-03-18T10:45:20.614Z,15.69
2023-03-18T10:47:57.080Z,15.96
2023-03-18T10:50:32.776Z,15.74
2023-03-18T10:53:18.278Z,16.35
2023-03-18T10:56:06.740Z,16.76
2023-03-18T10:58:34.253Z,16.72
2023-03-18T11:01:01.182Z,16.46
2023-03-18T11:03:32.180Z,15.97
2023-03-18T11:06:04.326Z,14.90
2023-03-18T11:08:35.707Z,15.13
2023-03-18T11:11:17.801Z,16.10
2023-03-18T11:13:53.809Z,16.18
2023-03-18T11:16:45.587Z,16.86
2023-03-18T11:19:25.660Z,16.85
2023-03-18T11:22:02.425Z,17.54
2023-03-18T11:24:36.572Z,17.10
2023-03-18T11:27:04.456Z,16.88
2023-03-18T11:29:33.618Z,18.03
2023-03-18T11:32:02.111Z,18.38
2023-03-18T11:34:32.733Z,16.69
2023-03-18T11:37:04.855Z,17.25
2023-03-18T11:39:37.756Z,16.87
2023-03-18T11:42:19.014Z,16.87
2023-03-18T11:44:46.861Z,17.89
2023-03-18T11:47:35.297Z,17.42
2023-03-18T11:50:04.466Z,17.40
2023-03-18T11:52:44.555Z,17.16
2023-03-18T11:55:20.496Z,16.64
2023-03-18T11:57:59.596Z,17.68
2023-03-18T12:00:37.107Z,18.21
2023-03-18T12:03:26.359Z,18.31
2023-03-18T12:06:12.018Z,18.72
2023-03-18T12:09:03.406Z,19.45
2023-03-18T12:11:57.467Z,18.02
2023-03-18T12:14:53.863Z,17.08
2023-03-18T12:17:40.745Z,16.16
2023-03-18T12:20:46.906Z,16.67
2023-03-18T12:23:30.925Z,16.98
2023-03-18T12:26:23.533Z,16.55
2023-03-18T12:29:16.260Z,16.22
2023-03-18T12:32:19.118Z,16.29
2023-03-18T12:35:18.345Z,17.83
2023-03-18T12:38:14.503Z,17.91
2023-03-18T12:40:47.412Z,17.66
2023-03-18T12:43:40.782Z,18.03
2023-03-18T12:46:44.519Z,17.56
2023-03-18T12:49:22.552Z,18.74
2023-03-18T12:51:58.996Z,18.83
2023-03-18T12:54:31.188Z,19.68
2023-03-18T12:57:08.489Z,19.48
2023-03-18T12:59:51.846Z,18.60
2023-03-18T13:02:34.814Z,18.69
2023-03-18T13:05:07.550Z,19.66
2023-03-18T13:07:46.990Z,19.57
2023-03-18T13:10:24.869Z,19.36
2023-03-18T13:12:56.079Z,19.45
2023-03-18T13:15:45.007Z,19.57
2023-03-18T13:18:21.379Z,19.20
2023-03-18T13:20:52.038Z,19.13
2023-03-18T13:24:04.076Z,18.44
2023-03-18T13:26:45.426Z,19.29
2023-03-18T13:29:39.216Z,18.56
2023-03-18T13:32:18.838Z,19.03
2023-03-18T13:34:52.150Z,19.82
2023-03-18T13:37:57.793Z,19.11
2023-03-18T13:40:56.493Z,18.93
2023-03-18T13:43:25.885Z,19.69
2023-03-18T13:45:57.241Z,18.94
2023-03-18T13:48:32.112Z,18.52
2023-03-18T13:51:14.256Z,18.54
2023-03-18T13:53:50.013Z,18.73
2023-03-18T13:56:30.616Z,17.64
2023-03-18T13:58:59.896Z,18.23
2023-03-18T14:01:33.654Z,17.37
2023-03-18T14:04:20.782Z,17.48
2023-03-18T14:06:57.174Z,17.73
2023-03-18T14:09:35.037Z,17.90
2023-03-18T14:12:17.451Z,17.69
2023-03-18T14:15:06.180Z,17.16
2023-03-18T14:17:48.403Z,18.05
2023-03-18T14:20:15.322Z,17.58
2023-03-18T14:22:43.736Z,17.38
2023-03-18T14:25:27.720Z,16.94
2023-03-18T14:27:59.718Z,16.82
2023-03-18T14:30:33.198Z,17.20
2023-03-18T14:33:05.487Z,17.01
2023-03-18T14:35:54.827Z,16.87
2023-03-18T14:38:40.077Z,17.11
2023-03-18T14:41:17.102Z,17.46
2023-03-18T14:43:54.865Z,17.20
2023-03-18T14:46:33.542Z,17.28
2023-03-18T14:49:00.851Z,17.32
2023-03-18T14:51:31.906Z,17.62
2023-03-18T14:54:12.816Z,17.58
2023-03-18T14:56:42.297Z,16.96
2023-03-18T14:59:15.870Z,17.06
2023-03-18T15:01:48.220Z,17.36
2023-03-18T15:04:25.213Z,16.89
2023-03-18T15:06:54.213Z,17.01
2023-03-18T15:09:30.286Z,17.45
2023-03-18T15:11:57.877Z,17.36
2023-03-18T15:14:28.096Z,16.80
2023-03-18T15:16:57.387Z,17.11
2023-03-18T15:19:25.029Z,17.23
2023-03-18T15:21:52.271Z,17.03
2023-03-18T15:24:23.216Z,17.36
2023-03-18T15:26:59.087Z,16.82
2023-03-18T15:29:35.197Z,17.08
2023-03-18T15:32:26.674Z,16.25
2023-03-18T15:34:56.898Z,16.30
2023-03-18T15:37:41.008Z,16.29
2023-03-18T15:40:44.987Z,16.34
2023-03-18T15:43:13.874Z,16.25
2023-03-18T15:46:01.358Z,15.66
2023-03-18T15:48:41.841Z,15.81
2023-03-18T15:51:40.698Z,15.78
2023-03-18T15:54:20.360Z,15.67
2023-03-18T15:56:49.557Z,15.74
2023-03-18T15:59:24.806Z,15.69
2023-03-18T16:01:54.044Z,16.46
2023-03-18T16:04:22.277Z,16.42
2023-03-18T16:06:49.337Z,16.26
2023-03-18T16:09:21.299Z,15.64
2023-03-18T16:11:59.019Z,16.24
2023-03-18T16:14:39.833Z,16.16
2023-03-18T16:17:06.790Z,16.15
2023-03-18T16:19:34.149Z,16.17
2023-03-18T16:22:01.196Z,15.93
2023-03-18T16:24:28.182Z,16.30
2023-03-18T16:26:56.906Z,15.30
2023-03-18T16:29:38.543Z,15.13
2023-03-18T16:32:06.172Z,15.48
2023-03-18T16:34:33.664Z,15.03
2023-03-18T16:37:01.059Z,15.54
2023-03-18T16:39:34.342Z,15.41
2023-03-18T16:42:04.503Z,15.42
2023-03-18T16:44:33.561Z,15.26
2023-03-18T16:47:02.631Z,15.33
2023-03-18T16:49:34.644Z,15.51
2023-03-18T16:52:04.498Z,15.12
2023-03-18T16:54:34.173Z,14.96
2023-03-18T16:57:04.687Z,14.61
2023-03-18T16:59:36.851Z,14.53
2023-03-18T17:02:05.948Z,14.72
2023-03-18T17:04:35.338Z,14.27
2023-03-18T17:07:04.908Z,14.26
2023-03-18T17:09:32.245Z,14.04
2023-03-18T17:12:06.090Z,14.25
2023-03-18T17:14:34.041Z,13.94
2023-03-18T17:17:05.380Z,13.52
2023-03-18T17:19:32.458Z,14.21
2023-03-18T17:21:59.358Z,14.16
2023-03-18T17:24:26.506Z,14.12
2023-03-18T17:26:56.981Z,13.60
2023-03-18T17:29:26.606Z,13.70
2023-03-18T17:31:56.086Z,13.31
2023-03-18T17:34:24.175Z,13.28
2023-03-18T17:36:51.518Z,13.24
2023-03-18T17:39:18.528Z,13.29
2023-03-18T17:41:45.538Z,13.37
2023-03-18T17:44:29.738Z,14.13
2023-03-18T17:46:57.318Z,12.85
2023-03-18T17:49:27.242Z,12.61
2023-03-18T17:51:56.373Z,12.74
2023-03-18T17:54:27.296Z,12.27
2023-03-18T17:56:56.835Z,12.22
2023-03-18T17:59:24.107Z,12.21
2023-03-18T18:01:51.473Z,12.44
2023-03-18T18:04:20.799Z,12.93
2023-03-18T18:06:49.250Z,12.46
2023-03-18T18:09:16.842Z,12.46
2023-03-18T18:11:47.024Z,12.80
2023-03-18T18:14:26.309Z,12.42
2023-03-18T18:16:56.224Z,12.84
2023-03-18T18:19:23.554Z,12.20
2023-03-18T18:21:51.100Z,12.48
2023-03-18T18:24:24.602Z,12.71
2023-03-18T18:26:52.417Z,12.53
2023-03-18T18:29:22.476Z,12.91
2023-03-18T18:31:49.710Z,12.94
2023-03-18T18:34:17.011Z,12.95
2023-03-18T18:36:45.196Z,12.82
2023-03-18T18:39:12.323Z,12.34
2023-03-18T18:41:39.324Z,11.23
2023-03-18T18:44:07.541Z,10.77
2023-03-18T18:46:35.315Z,10.76
2023-03-18T18:49:02.479Z,10.71
2023-03-18T18:51:29.540Z,10.39
2023-03-18T18:53:56.505Z,10.83
2023-03-18T18:56:37.044Z,10.39
2023-03-18T18:59:22.388Z,10.03
2023-03-18T19:01:53.496Z,9.80
2023-03-18T19:04:22.296Z,9.98
2023-03-18T19:06:51.193Z,9.98
2023-03-18T19:09:26.202Z,10.31
2023-03-18T19:11:56.429Z,10.41
2023-03-18T19:14:26.088Z,10.56
2023-03-18T19:16:54.587Z,10.87
2023-03-18T19:19:26.597Z,11.37
2023-03-18T19:21:53.582Z,11.55
2023-03-18T19:24:27.108Z,11.32
2023-03-18T19:26:56.396Z,10.52
2023-03-18T19:29:23.921Z,10.54
2023-03-18T19:31:50.934Z,10.41
2023-03-18T19:34:19.078Z,10.32
2023-03-18T19:36:48.992Z,9.95
2023-03-18T19:39:17.050Z,10.18
2023-03-18T19:41:45.677Z,10.43
2023-03-18T19:44:18.336Z,10.66
2023-03-18T19:46:46.883Z,11.05
2023-03-18T19:49:19.788Z,11.19
2023-03-18T19:51:47.234Z,11.32
2023-03-18T19:54:36.875Z,11.01
2023-03-18T19:57:07.082Z,10.36
2023-03-18T19:59:39.292Z,9.70
2023-03-18T20:02:22.234Z,10.00
2023-03-18T20:04:55.001Z,9.95
2023-03-18T20:07:25.895Z,9.49
2023-03-18T20:09:54.114Z,9.28
2023-03-18T20:12:33.601Z,9.03
2023-03-18T20:15:00.717Z,9.26
2023-03-18T20:17:38.394Z,9.22
2023-03-18T20:20:07.765Z,9.24
2023-03-18T20:22:37.614Z,9.35
2023-03-18T20:25:05.408Z,9.51
2023-03-18T20:27:32.293Z,9.37
2023-03-18T20:29:59.324Z,9.74
2023-03-18T20:32:26.343Z,10.39
2023-03-18T20:34:53.318Z,9.83
2023-03-18T20:37:34.816Z,10.00
2023-03-18T20:40:07.485Z,10.20
2023-03-18T20:42:34.439Z,10.57
2023-03-18T20:45:01.409Z,10.72
2023-03-18T20:47:28.280Z,10.84
2023-03-18T20:49:55.759Z,10.84
2023-03-18T20:52:30.547Z,10.93
2023-03-18T20:54:58.136Z,11.00
2023-03-18T20:57:25.840Z,11.03
2023-03-18T20:59:53.228Z,10.89
2023-03-18T21:02:31.248Z,11.06
2023-03-18T21:04:59.297Z,11.04
2023-03-18T21:07:27.013Z,10.88
2023-03-18T21:09:54.567Z,11.02
2023-03-18T21:12:22.473Z,11.11
2023-03-18T21:14:50.225Z,10.91
2023-03-18T21:17:26.096Z,10.89
2023-03-18T21:19:55.320Z,10.90
2023-03-18T21:22:26.637Z,10.72
2023-03-18T21:24:53.868Z,10.62
2023-03-18T21:27:23.618Z,10.56
2023-03-18T21:29:52.337Z,10.58
2023-03-18T21:32:32.947Z,10.40
2023-03-18T21:35:00.178Z,10.55
2023-03-18T21:37:27.950Z,10.55
2023-03-18T21:39:55.067Z,10.32
2023-03-18T21:42:32.958Z,10.33
2023-03-18T21:45:02.363Z,10.44
2023-03-18T21:47:30.461Z,9.99
2023-03-18T21:49:57.589Z,10.35
2023-03-18T21:52:29.839Z,10.37
2023-03-18T21:54:57.371Z,10.22
2023-03-18T21:57:25.715Z,10.34
2023-03-18T22:00:02.702Z,10.05
2023-03-18T22:02:33.843Z,10.12
2023-03-18T22:05:03.793Z,10.25
2023-03-18T22:07:31.746Z,10.11
2023-03-18T22:10:00.897Z,10.16
2023-03-18T22:12:31.115Z,9.41
2023-03-18T22:14:59.207Z,9.30
2023-03-18T22:17:32.066Z,9.71
2023-03-18T22:20:00.873Z,9.88
2023-03-18T22:22:36.940Z,9.89
2023-03-18T22:25:04.449Z,9.46
2023-03-18T22:27:32.480Z,9.36
2023-03-18T22:30:01.100Z,9.29
2023-03-18T22:32:44.755Z,9.70
2023-03-18T22:35:22.563Z,9.68
2023-03-18T22:37:50.058Z,9.23
2023-03-18T22:40:19.904Z,8.82
2023-03-18T22:42:47.951Z,9.37
2023-03-18T22:45:25.110Z,9.52
2023-03-18T22:47:55.573Z,9.38
2023-03-18T22:50:23.924Z,8.96
2023-03-18T22:52:53.462Z,9.06
2023-03-18T22:55:23.154Z,7.90
2023-03-18T22:57:56.094Z,8.16
2023-03-18T23:00:37.536Z,7.81
2023-03-18T23:03:19.860Z,7.59
2023-03-18T23:05:50.324Z,7.03
2023-03-18T23:08:18.113Z,6.90
2023-03-18T23:10:46.202Z,6.91
2023-03-18T23:13:26.631Z,6.64
2023-03-18T23:15:54.250Z,6.68
2023-03-18T23:18:25.861Z,6.83
2023-03-18T23:20:53.282Z,7.11
2023-03-18T23:23:23.543Z,7.27
2023-03-18T23:25:59.575Z,7.02
2023-03-18T23:28:27.552Z,7.37
2023-03-18T23:30:55.135Z,6.74
2023-03-18T23:33:22.040Z,6.27
2023-03-18T23:35:48.994Z,6.79
2023-03-18T23:38:16.378Z,7.05
2023-03-18T23:40:44.567Z,7.44
2023-03-18T23:43:12.641Z,6.88
2023-03-18T23:45:40.027Z,6.80
2023-03-18T23:48:07.491Z,6.60
2023-03-18T23:50:35.133Z,6.76
2023-03-18T23:53:02.559Z,6.11
2023-03-18T23:55:36.718Z,6.67
2023-03-18T23:58:04.551Z,6.60
